| time (UTC) | temp C | wind direction | speed KPH | gust KPH | rain 1hr cm | rain 24hr cm | rain mn cm | humidity % | barometer mb |
| 20260506231342 | 20 | 89 | 1.6 | 1.6 | 0.00 | 0.43 | 0.43 | 74 | 1010.5 |
| 20260506230840 | 20 | 83 | 1.6 | 3.2 | 0.00 | 0.43 | 0.43 | 74 | 1010.5 |
| 20260506230336 | 20 | 82 | 1.6 | 4.8 | 0.00 | 0.43 | 0.43 | 74 | 1010.6 |
| 20260506225832 | 20 | 76 | 1.6 | 4.8 | 0.00 | 0.43 | 0.43 | 74 | 1010.8 |
| 20260506225330 | 20 | 290 | 4.8 | 4.8 | 0.00 | 0.43 | 0.43 | 74 | 1010.6 |
| 20260506224827 | 20 | 75 | 1.6 | 3.2 | 0.00 | 0.43 | 0.43 | 73 | 1010.6 |
| 20260506224324 | 20 | 97 | 1.6 | 8.0 | 0.00 | 0.43 | 0.43 | 73 | 1010.6 |
| 20260506223820 | 20 | 221 | 3.2 | 4.8 | 0.00 | 0.43 | 0.43 | 73 | 1010.5 |
| 20260506223315 | 20 | 178 | 1.6 | 4.8 | 0.00 | 0.43 | 0.43 | 73 | 1010.5 |
| 20260506222812 | 20 | 184 | 4.8 | 4.8 | 0.00 | 0.43 | 0.43 | 73 | 1010.6 |
| 20260506222308 | 20 | 198 | 6.4 | 9.7 | 0.00 | 0.43 | 0.43 | 72 | 1010.5 |
| 20260506221801 | 20 | 200 | 4.8 | 9.7 | 0.00 | 0.43 | 0.43 | 72 | 1010.3 |
| 20260506221258 | 20 | 95 | 3.2 | 3.2 | 0.00 | 0.43 | 0.43 | 73 | 1010.4 |
| 20260506220755 | 20 | 97 | 1.6 | 4.8 | 0.00 | 0.43 | 0.43 | 73 | 1010.2 |
| 20260506220250 | 20 | 285 | 4.8 | 9.7 | 0.00 | 0.43 | 0.43 | 73 | 1010.5 |
| 20260506215747 | 20 | 136 | 6.4 | 9.7 | 0.00 | 0.43 | 0.43 | 73 | 1010.6 |
| 20260506215242 | 20 | 85 | 4.8 | 11.3 | 0.00 | 0.43 | 0.43 | 73 | 1010.5 |
| 20260506214733 | 20 | 212 | 4.8 | 8.0 | 0.00 | 0.43 | 0.43 | 73 | 1010.4 |
| 20260506214231 | 20 | 120 | 1.6 | 4.8 | 0.00 | 0.43 | 0.43 | 73 | 1010.3 |
| 20260506213729 | 20 | 102 | 1.6 | 3.2 | 0.00 | 0.43 | 0.43 | 73 | 1010.3 |
| 20260506213225 | 20 | 166 | 4.8 | 4.8 | 0.00 | 0.43 | 0.43 | 73 | 1010.2 |
| 20260506212717 | 20 | 248 | 4.8 | 9.7 | 0.00 | 0.43 | 0.43 | 72 | 1010.2 |
| 20260506212212 | 20 | 238 | 4.8 | 11.3 | 0.00 | 0.43 | 0.43 | 72 | 1010.1 |
| 20260506211708 | 20 | 307 | 8.0 | 9.7 | 0.00 | 0.43 | 0.43 | 72 | 1010.1 |
| 20260506211204 | 20 | 148 | 3.2 | 3.2 | 0.00 | 0.43 | 0.43 | 73 | 1010.1 |
| 20260506210702 | 20 | 126 | 3.2 | 9.7 | 0.00 | 0.43 | 0.43 | 73 | 1010.1 |
| 20260506210158 | 20 | 297 | 4.8 | 11.3 | 0.00 | 0.43 | 0.43 | 73 | 1009.9 |
| 20260506205655 | 20 | 100 | 4.8 | 11.3 | 0.00 | 0.43 | 0.43 | 73 | 1010.0 |
| 20260506205150 | 19 | 93 | 3.2 | 9.7 | 0.00 | 0.43 | 0.43 | 74 | 1010.0 |
| 20260506204648 | 20 | 219 | 4.8 | 11.3 | 0.00 | 0.43 | 0.43 | 74 | 1010.1 |
| 20260506204145 | 20 | 188 | 6.4 | 11.3 | 0.00 | 0.43 | 0.43 | 73 | 1009.9 |
| 20260506203643 | 20 | 214 | 4.8 | 9.7 | 0.00 | 0.43 | 0.43 | 72 | 1009.9 |
| 20260506203140 | 20 | 145 | 6.4 | 9.7 | 0.00 | 0.43 | 0.43 | 72 | 1009.9 |
| 20260506202638 | 20 | 281 | 6.4 | 9.7 | 0.00 | 0.43 | 0.43 | 73 | 1010.1 |
| 20260506202133 | 20 | 208 | 4.8 | 12.9 | 0.00 | 0.43 | 0.43 | 73 | 1009.9 |
| 20260506201631 | 20 | 8 | 4.8 | 4.8 | 0.00 | 0.43 | 0.43 | 75 | 1009.8 |
| 20260506201127 | 18 | 226 | 6.4 | 11.3 | 0.00 | 0.43 | 0.43 | 75 | 1010.0 |
| 20260506200624 | 18 | 84 | 4.8 | 9.7 | 0.00 | 0.43 | 0.43 | 76 | 1010.0 |
| 20260506200121 | 18 | 22 | 8.0 | 9.7 | 0.00 | 0.43 | 0.43 | 77 | 1010.1 |
| 20260506195617 | 18 | 149 | 8.0 | 11.3 | 0.00 | 0.43 | 0.43 | 77 | 1010.0 |
| 20260506195114 | 18 | 131 | 3.2 | 9.7 | 0.00 | 0.43 | 0.43 | 77 | 1010.3 |
| 20260506194611 | 18 | 253 | 4.8 | 9.7 | 0.00 | 0.43 | 0.43 | 77 | 1010.3 |
| 20260506194107 | 18 | 230 | 4.8 | 9.7 | 0.00 | 0.43 | 0.43 | 77 | 1010.3 |
| 20260506193605 | 18 | 191 | 3.2 | 8.0 | 0.00 | 0.43 | 0.43 | 78 | 1010.2 |
| 20260506193103 | 17 | 227 | 4.8 | 8.0 | 0.00 | 0.43 | 0.43 | 78 | 1010.3 |
| 20260506192559 | 17 | 114 | 4.8 | 4.8 | 0.00 | 0.43 | 0.43 | 79 | 1010.3 |
| 20260506192055 | 17 | 215 | 4.8 | 9.7 | 0.00 | 0.43 | 0.43 | 79 | 1010.4 |
| 20260506191551 | 17 | 156 | 4.8 | 8.0 | 0.00 | 0.43 | 0.43 | 79 | 1010.5 |
| 20260506191047 | 17 | 163 | 4.8 | 11.3 | 0.00 | 0.43 | 0.43 | 79 | 1010.6 |
| 20260506190545 | 17 | 177 | 4.8 | 4.8 | 0.00 | 0.43 | 0.43 | 79 | 1010.6 |
| 20260506190042 | 17 | 240 | 4.8 | 11.3 | 0.00 | 0.43 | 0.43 | 79 | 1010.8 |
| 20260506185539 | 17 | 155 | 3.2 | 4.8 | 0.00 | 0.43 | 0.43 | 79 | 1010.6 |
| 20260506185036 | 17 | 92 | 1.6 | 9.7 | 0.00 | 0.43 | 0.43 | 80 | 1010.6 |
| 20260506184533 | 17 | 194 | 4.8 | 4.8 | 0.00 | 0.43 | 0.43 | 80 | 1010.8 |
| 20260506184030 | 17 | 254 | 6.4 | 11.3 | 0.00 | 0.43 | 0.43 | 80 | 1010.9 |
| 20260506183526 | 17 | 208 | 4.8 | 8.0 | 0.00 | 0.43 | 0.43 | 81 | 1011.0 |
| 20260506183023 | 16 | 98 | 1.6 | 25.7 | 0.00 | 0.43 | 0.43 | 81 | 1011.1 |
| 20260506182520 | 16 | 191 | 8.0 | 11.3 | 0.00 | 0.43 | 0.43 | 82 | 1011.0 |
| 20260506182017 | 16 | 215 | 6.4 | 12.9 | 0.00 | 0.43 | 0.43 | 82 | 1010.9 |
| 20260506181515 | 16 | 266 | 6.4 | 9.7 | 0.00 | 0.43 | 0.43 | 83 | 1011.0 |
| 20260506181012 | 16 | 110 | 4.8 | 11.3 | 0.00 | 0.43 | 0.43 | 83 | 1010.9 |
| 20260506180508 | 16 | 234 | 9.7 | 16.1 | 0.00 | 0.43 | 0.43 | 85 | 1010.9 |
| 20260506180006 | 16 | 136 | 4.8 | 11.3 | 0.00 | 0.43 | 0.43 | 86 | 1011.0 |
| 20260506175502 | 16 | 219 | 6.4 | 9.7 | 0.00 | 0.43 | 0.43 | 87 | 1011.0 |
| 20260506174958 | 16 | 257 | 8.0 | 9.7 | 0.00 | 0.43 | 0.43 | 87 | 1011.0 |
| 20260506174456 | 16 | 204 | 4.8 | 4.8 | 0.00 | 0.43 | 0.43 | 87 | 1011.2 |
| 20260506173952 | 16 | 11 | 4.8 | 12.9 | 0.00 | 0.43 | 0.43 | 87 | 1011.1 |
| 20260506173450 | 16 | 233 | 6.4 | 11.3 | 0.00 | 0.43 | 0.43 | 87 | 1011.2 |
| 20260506172946 | 16 | 187 | 4.8 | 9.7 | 0.00 | 0.43 | 0.43 | 88 | 1011.0 |
| 20260506172444 | 16 | 106 | 1.6 | 17.7 | 0.00 | 0.43 | 0.43 | 88 | 1011.1 |
| 20260506171940 | 16 | 212 | 4.8 | 8.0 | 0.00 | 0.43 | 0.43 | 88 | 1011.0 |
| 20260506171438 | 16 | 199 | 3.2 | 8.0 | 0.00 | 0.43 | 0.43 | 88 | 1011.4 |
| 20260506170936 | 16 | 146 | 4.8 | 16.1 | 0.00 | 0.43 | 0.43 | 88 | 1011.5 |
| 20260506170431 | 16 | 198 | 3.2 | 11.3 | 0.00 | 0.43 | 0.43 | 88 | 1011.2 |
| 20260506165925 | 16 | 210 | 8.0 | 14.5 | 0.00 | 0.43 | 0.43 | 88 | 1011.2 |
| 20260506165423 | 16 | 159 | 9.7 | 16.1 | 0.00 | 0.43 | 0.43 | 88 | 1011.2 |
| 20260506164919 | 16 | 99 | 1.6 | 8.0 | 0.00 | 0.43 | 0.43 | 88 | 1011.1 |
| 20260506164415 | 16 | 139 | 3.2 | 9.7 | 0.00 | 0.43 | 0.43 | 88 | 1011.1 |
| 20260506163913 | 16 | 174 | 4.8 | 12.9 | 0.13 | 0.43 | 0.43 | 88 | 1011.2 |
| 20260506163407 | 16 | 225 | 8.0 | 12.9 | 0.13 | 0.43 | 0.43 | 88 | 1011.2 |
| 20260506162902 | 16 | 166 | 3.2 | 9.7 | 0.00 | 0.41 | 0.41 | 88 | 1011.3 |
| 20260506162400 | 16 | 85 | 4.8 | 4.8 | 0.00 | 0.41 | 0.41 | 88 | 1011.2 |
| 20260506161852 | 16 | 125 | 3.2 | 4.8 | 0.00 | 0.41 | 0.41 | 87 | 1011.2 |
| 20260506161349 | 16 | 81 | 3.2 | 3.2 | 0.00 | 0.41 | 0.41 | 87 | 1011.5 |
| 20260506160842 | 16 | 152 | 3.2 | 4.8 | 0.18 | 0.41 | 0.41 | 87 | 1011.9 |
| 20260506160338 | 16 | 106 | 3.2 | 9.7 | 0.18 | 0.41 | 0.41 | 86 | 1011.9 |
| 20260506155837 | 16 | 79 | 1.6 | 8.0 | 0.13 | 0.38 | 0.38 | 86 | 1012.3 |
| 20260506155333 | 16 | 239 | 6.4 | 11.3 | 0.30 | 0.38 | 0.38 | 86 | 1012.4 |
| 20260506153450 | 16 | 210 | 4.8 | 8.0 | 0.30 | 0.28 | 0.28 | 84 | 1012.5 |
| 20260506152948 | 16 | 67 | 1.6 | 3.2 | 0.30 | 0.25 | 0.25 | 84 | 1012.5 |
| 20260506152445 | 16 | 195 | 1.6 | 3.2 | 0.30 | 0.23 | 0.23 | 83 | 1012.4 |
| 20260506151943 | 16 | 206 | 4.8 | 4.8 | 0.30 | 0.20 | 0.20 | 83 | 1012.5 |
| 20260506151440 | 16 | 121 | 3.2 | 4.8 | 0.48 | 0.18 | 0.18 | 83 | 1012.5 |
| 20260506150938 | 16 | 193 | 4.8 | 11.3 | 0.18 | 0.13 | 0.13 | 82 | 1012.3 |
| 20260506150433 | 16 | 218 | 8.0 | 9.7 | 0.13 | 0.10 | 0.10 | 82 | 1012.3 |
| 20260506145931 | 16 | 203 | 6.4 | 9.7 | 0.00 | 0.08 | 0.08 | 82 | 1012.5 |
| 20260506145427 | 16 | 191 | 4.8 | 9.7 | 0.00 | 0.08 | 0.08 | 82 | 1012.4 |
| 20260506144925 | 16 | 236 | 4.8 | 4.8 | 0.00 | 0.08 | 0.08 | 81 | 1012.4 |
| 20260506144421 | 16 | 191 | 3.2 | 4.8 | 0.18 | 0.08 | 0.08 | 80 | 1012.3 |
| 20260506143919 | 16 | 135 | 4.8 | 4.8 | 0.18 | 0.08 | 0.08 | 79 | 1012.3 |
| 20260506143416 | 17 | 124 | 3.2 | 4.8 | 0.30 | 0.05 | 0.05 | 78 | 1012.3 |
| 20260506142914 | 17 | 126 | 1.6 | 8.0 | 0.18 | 0.03 | 0.03 | 75 | 1012.5 |
| 20260506142412 | 17 | 96 | 3.2 | 3.2 | 0.00 | 0.00 | 0.00 | 73 | 1012.5 |
| 20260506141910 | 18 | 63 | 3.2 | 8.0 | 0.00 | 0.00 | 0.00 | 71 | 1012.4 |
| 20260506141408 | 18 | 287 | 4.8 | 8.0 | 0.00 | 0.00 | 0.00 | 71 | 1012.6 |
| 20260506140906 | 18 | 251 | 3.2 | 4.8 | 0.00 | 0.00 | 0.00 | 70 | 1012.4 |
| 20260506140402 | 18 | 227 | 8.0 | 9.7 | 0.00 | 0.00 | 0.00 | 69 | 1012.2 |
| 20260506135859 | 18 | 132 | 3.2 | 4.8 | 0.00 | 0.00 | 0.00 | 69 | 1012.1 |
| 20260506135356 | 18 | 287 | 4.8 | 8.0 | 0.00 | 0.00 | 0.00 | 68 | 1012.2 |
| 20260506134852 | 18 | 163 | 3.2 | 8.0 | 0.00 | 0.00 | 0.00 | 68 | 1012.0 |
| 20260506134349 | 19 | 69 | 4.8 | 11.3 | 0.00 | 0.00 | 0.00 | 68 | 1012.0 |
| 20260506133846 | 19 | 259 | 9.7 | 12.9 | 0.00 | 0.00 | 0.00 | 67 | 1012.1 |
| 20260506133342 | 18 | 155 | 4.8 | 8.0 | 0.00 | 0.00 | 0.00 | 68 | 1012.1 |
| 20260506132839 | 18 | 174 | 8.0 | 9.7 | 0.00 | 0.00 | 0.00 | 68 | 1012.3 |
| 20260506132336 | 18 | 67 | 4.8 | 11.3 | 0.00 | 0.00 | 0.00 | 68 | 1012.4 |
| 20260506131835 | 18 | 81 | 3.2 | 9.7 | 0.00 | 0.00 | 0.00 | 67 | 1012.3 |
| 20260506131330 | 18 | 218 | 3.2 | 8.0 | 0.00 | 0.00 | 0.00 | 67 | 1012.1 |
| 20260506130828 | 18 | 240 | 4.8 | 9.7 | 0.00 | 0.00 | 0.00 | 67 | 1012.2 |
| 20260506130324 | 18 | 242 | 9.7 | 12.9 | 0.00 | 0.00 | 0.00 | 67 | 1012.4 |
| 20260506125822 | 18 | 229 | 16.1 | 24.1 | 0.00 | 0.00 | 0.00 | 67 | 1012.6 |
| 20260506125320 | 19 | 223 | 11.3 | 16.1 | 0.00 | 0.00 | 0.00 | 66 | 1012.6 |
| 20260506124818 | 19 | 88 | 3.2 | 4.8 | 0.00 | 0.00 | 0.00 | 66 | 1012.5 |
| 20260506124315 | 19 | 200 | 3.2 | 11.3 | 0.00 | 0.00 | 0.00 | 66 | 1012.3 |
| 20260506123813 | 19 | 150 | 6.4 | 16.1 | 0.00 | 0.00 | 0.00 | 65 | 1012.4 |
| 20260506123311 | 19 | 81 | 8.0 | 12.9 | 0.00 | 0.00 | 0.00 | 66 | 1012.3 |
| 20260506122808 | 18 | 223 | 6.4 | 9.7 | 0.00 | 0.00 | 0.00 | 66 | 1012.3 |
| 20260506122306 | 18 | 73 | 4.8 | 9.7 | 0.00 | 0.00 | 0.00 | 66 | 1012.2 |
| 20260506121803 | 18 | 183 | 6.4 | 8.0 | 0.00 | 0.00 | 0.00 | 66 | 1012.0 |
| 20260506121259 | 18 | 176 | 4.8 | 11.3 | 0.00 | 0.00 | 0.00 | 66 | 1012.2 |
| 20260506120757 | 18 | 80 | 4.8 | 9.7 | 0.00 | 0.00 | 0.00 | 66 | 1012.2 |
| 20260506120254 | 18 | 174 | 4.8 | 11.3 | 0.00 | 0.00 | 0.00 | 66 | 1012.1 |
| 20260506115752 | 18 | 201 | 6.4 | 9.7 | 0.00 | 0.00 | 0.00 | 67 | 1012.0 |
| 20260506115250 | 18 | 56 | 3.2 | 8.0 | 0.00 | 0.00 | 0.00 | 66 | 1012.0 |
| 20260506114747 | 18 | 198 | 8.0 | 11.3 | 0.00 | 0.00 | 0.00 | 67 | 1012.0 |
| 20260506114245 | 18 | 143 | 3.2 | 9.7 | 0.00 | 0.00 | 0.00 | 67 | 1011.9 |
| 20260506113743 | 18 | 140 | 4.8 | 14.5 | 0.00 | 0.00 | 0.00 | 67 | 1011.8 |
| 20260506113240 | 18 | 166 | 4.8 | 8.0 | 0.00 | 0.00 | 0.00 | 67 | 1011.9 |
| 20260506112736 | 18 | 204 | 6.4 | 12.9 | 0.00 | 0.00 | 0.00 | 67 | 1011.8 |
| 20260506112234 | 18 | 189 | 11.3 | 17.7 | 0.00 | 0.00 | 0.00 | 67 | 1012.0 |
| 20260506111731 | 18 | 220 | 8.0 | 12.9 | 0.00 | 0.00 | 0.00 | 67 | 1011.9 |
| 20260506111230 | 18 | 287 | 4.8 | 9.7 | 0.00 | 0.00 | 0.00 | 67 | 1012.0 |
| 20260506110726 | 18 | 139 | 6.4 | 11.3 | 0.00 | 0.00 | 0.00 | 67 | 1011.9 |
| 20260506110224 | 18 | 102 | 3.2 | 8.0 | 0.00 | 0.00 | 0.00 | 67 | 1011.9 |
| 20260506105720 | 18 | 210 | 4.8 | 8.0 | 0.00 | 0.00 | 0.00 | 67 | 1011.7 |
| 20260506105217 | 18 | 137 | 4.8 | 8.0 | 0.00 | 0.00 | 0.00 | 68 | 1011.9 |
| 20260506104715 | 18 | 96 | 4.8 | 9.7 | 0.00 | 0.00 | 0.00 | 68 | 1011.8 |
| 20260506104213 | 18 | 60 | 3.2 | 9.7 | 0.00 | 0.00 | 0.00 | 68 | 1011.8 |
| 20260506103709 | 18 | 99 | 6.4 | 12.9 | 0.00 | 0.00 | 0.00 | 68 | 1011.8 |
| 20260506103206 | 18 | 93 | 8.0 | 14.5 | 0.00 | 0.00 | 0.00 | 68 | 1011.7 |
| 20260506102704 | 18 | 96 | 4.8 | 4.8 | 0.00 | 0.00 | 0.00 | 67 | 1011.9 |
| 20260506102202 | 18 | 153 | 3.2 | 9.7 | 0.00 | 0.00 | 0.00 | 68 | 1011.7 |
| 20260506101659 | 18 | 118 | 3.2 | 9.7 | 0.00 | 0.00 | 0.00 | 67 | 1011.5 |
| 20260506101155 | 18 | 86 | 3.2 | 9.7 | 0.00 | 0.00 | 0.00 | 67 | 1011.6 |
| 20260506100654 | 18 | 105 | 3.2 | 8.0 | 0.00 | 0.00 | 0.00 | 67 | 1011.7 |
| 20260506100151 | 18 | 142 | 9.7 | 12.9 | 0.00 | 0.00 | 0.00 | 67 | 1011.8 |
| 20260506095650 | 18 | 112 | 4.8 | 9.7 | 0.00 | 0.00 | 0.00 | 67 | 1011.6 |
| 20260506095146 | 18 | 120 | 4.8 | 8.0 | 0.00 | 0.00 | 0.00 | 67 | 1011.7 |
| 20260506094643 | 18 | 196 | 3.2 | 9.7 | 0.00 | 0.00 | 0.00 | 67 | 1011.8 |
| 20260506094141 | 18 | 148 | 4.8 | 12.9 | 0.00 | 0.00 | 0.00 | 67 | 1011.8 |
| 20260506093639 | 18 | 264 | 6.4 | 20.9 | 0.00 | 0.00 | 0.00 | 67 | 1011.6 |
| 20260506093136 | 18 | 208 | 4.8 | 12.9 | 0.00 | 0.00 | 0.00 | 67 | 1011.8 |
| 20260506092634 | 18 | 49 | 1.6 | 14.5 | 0.00 | 0.00 | 0.00 | 67 | 1011.7 |
| 20260506092131 | 18 | 111 | 4.8 | 9.7 | 0.00 | 0.00 | 0.00 | 66 | 1011.6 |
| 20260506091629 | 18 | 250 | 8.0 | 11.3 | 0.00 | 0.00 | 0.00 | 66 | 1011.8 |
| 20260506091126 | 18 | 169 | 4.8 | 8.0 | 0.00 | 0.00 | 0.00 | 66 | 1011.6 |
| 20260506090624 | 19 | 106 | 3.2 | 8.0 | 0.00 | 0.00 | 0.00 | 65 | 1011.7 |
| 20260506090120 | 19 | 312 | 4.8 | 8.0 | 0.00 | 0.00 | 0.00 | 65 | 1011.7 |
| 20260506085617 | 19 | 146 | 4.8 | 12.9 | 0.00 | 0.00 | 0.00 | 65 | 1011.8 |
| 20260506085114 | 19 | 191 | 9.7 | 12.9 | 0.00 | 0.00 | 0.00 | 65 | 1011.7 |
| 20260506084610 | 19 | 110 | 3.2 | 8.0 | 0.00 | 0.00 | 0.00 | 65 | 1011.7 |
| 20260506084107 | 19 | 101 | 9.7 | 17.7 | 0.00 | 0.00 | 0.00 | 65 | 1011.6 |
| 20260506083604 | 19 | 189 | 4.8 | 8.0 | 0.00 | 0.00 | 0.00 | 65 | 1011.8 |
| 20260506083102 | 19 | 181 | 6.4 | 12.9 | 0.00 | 0.00 | 0.00 | 65 | 1011.7 |
| 20260506082558 | 19 | 80 | 3.2 | 16.1 | 0.00 | 0.00 | 0.00 | 65 | 1011.8 |
| 20260506082054 | 19 | 220 | 4.8 | 9.7 | 0.00 | 0.00 | 0.00 | 65 | 1011.9 |
| 20260506081552 | 19 | 79 | 8.0 | 11.3 | 0.00 | 0.00 | 0.00 | 65 | 1011.9 |
| 20260506081049 | 19 | 59 | 3.2 | 11.3 | 0.00 | 0.00 | 0.00 | 65 | 1011.8 |
| 20260506080547 | 19 | 185 | 6.4 | 12.9 | 0.00 | 0.00 | 0.00 | 65 | 1011.9 |
| 20260506073027 | 19 | 195 | 3.2 | 8.0 | 0.00 | 0.00 | 0.00 | 64 | 1012.0 |
| 20260506072524 | 19 | 217 | 3.2 | 8.0 | 0.00 | 0.00 | 0.00 | 64 | 1012.2 |
| 20260506072022 | 19 | 171 | 4.8 | 9.7 | 0.00 | 0.00 | 0.00 | 64 | 1012.0 |
| 20260506071520 | 20 | 189 | 4.8 | 12.9 | 0.00 | 0.00 | 0.00 | 64 | 1012.1 |
| 20260506071017 | 20 | 150 | 4.8 | 16.1 | 0.00 | 0.00 | 0.00 | 63 | 1012.1 |
| 20260506070514 | 20 | 129 | 4.8 | 14.5 | 0.00 | 0.00 | 0.00 | 63 | 1012.2 |
| 20260506062451 | 20 | 96 | 1.6 | 3.2 | 0.00 | 0.00 | 0.00 | 61 | 1012.5 |
| 20260506061947 | 20 | 161 | 6.4 | 11.3 | 0.00 | 0.00 | 0.00 | 61 | 1012.6 |
| 20260506061444 | 20 | 196 | 4.8 | 9.7 | 0.00 | 0.00 | 0.00 | 61 | 1012.6 |
| 20260506060942 | 20 | 119 | 3.2 | 4.8 | 0.00 | 0.00 | 0.00 | 61 | 1012.6 |
| 20260506060440 | 20 | 128 | 4.8 | 16.1 | 0.00 | 0.00 | 0.00 | 61 | 1012.6 |
| 20260506051412 | 20 | 95 | 3.2 | 8.0 | 0.00 | 0.00 | 0.00 | 60 | 1013.2 |
| 20260506050909 | 20 | 254 | 4.8 | 9.7 | 0.00 | 0.00 | 0.00 | 59 | 1013.0 |
| 20260506050406 | 20 | 134 | 4.8 | 12.9 | 0.00 | 0.00 | 0.00 | 59 | 1013.1 |
| 20260506044857 | 20 | 121 | 4.8 | 4.8 | 0.00 | 0.00 | 0.00 | 60 | 1013.3 |
| 20260506044354 | 20 | 115 | 1.6 | 4.8 | 0.00 | 0.00 | 0.00 | 59 | 1013.3 |
| 20260506043851 | 20 | 77 | 1.6 | 4.8 | 0.00 | 0.00 | 0.00 | 59 | 1013.2 |
| 20260506043348 | 20 | 153 | 4.8 | 8.0 | 0.00 | 0.00 | 0.00 | 59 | 1013.2 |
| 20260506042847 | 20 | 103 | 1.6 | 4.8 | 0.00 | 0.00 | 0.00 | 58 | 1013.2 |
| 20260506042346 | 20 | 77 | 3.2 | 11.3 | 0.00 | 0.00 | 0.00 | 58 | 1013.4 |
| 20260506041844 | 20 | 76 | 3.2 | 9.7 | 0.00 | 0.00 | 0.00 | 58 | 1013.3 |
| 20260506041341 | 20 | 150 | 4.8 | 8.0 | 0.00 | 0.00 | 0.00 | 58 | 1013.2 |
| 20260506040837 | 20 | 104 | 4.8 | 9.7 | 0.00 | 0.00 | 0.00 | 58 | 1013.2 |
| 20260506040335 | 20 | 158 | 3.2 | 8.0 | 0.00 | 0.00 | 0.00 | 58 | 1013.2 |
| 20260506035831 | 20 | 100 | 3.2 | 8.0 | 0.00 | 0.00 | 0.00 | 58 | 1013.2 |
| 20260506035329 | 20 | 167 | 3.2 | 8.0 | 0.00 | 0.00 | 0.00 | 57 | 1013.3 |
| 20260506034826 | 20 | 148 | 4.8 | 8.0 | 0.00 | 0.00 | 0.00 | 57 | 1013.3 |
| 20260506034323 | 20 | 166 | 3.2 | 8.0 | 0.00 | 0.00 | 0.00 | 56 | 1013.1 |
| 20260506033820 | 20 | 172 | 6.4 | 8.0 | 0.00 | 0.00 | 0.00 | 56 | 1013.1 |
| 20260506033317 | 20 | 99 | 3.2 | 11.3 | 0.00 | 0.00 | 0.00 | 55 | 1013.0 |
| 20260506032813 | 20 | 161 | 4.8 | 11.3 | 0.00 | 0.00 | 0.00 | 55 | 1013.2 |
| 20260506032310 | 20 | 84 | 3.2 | 3.2 | 0.00 | 0.00 | 0.00 | 55 | 1013.0 |
| 20260506031807 | 20 | 151 | 3.2 | 8.0 | 0.00 | 0.00 | 0.00 | 54 | 1013.2 |
| 20260506031304 | 21 | 176 | 4.8 | 9.7 | 0.00 | 0.00 | 0.00 | 54 | 1013.0 |
| 20260506030802 | 21 | 80 | 1.6 | 11.3 | 0.00 | 0.00 | 0.00 | 53 | 1013.1 |
| 20260506030300 | 21 | 119 | 4.8 | 9.7 | 0.00 | 0.00 | 0.00 | 53 | 1013.2 |
| 20260506025757 | 21 | 73 | 3.2 | 8.0 | 0.00 | 0.00 | 0.00 | 52 | 1013.2 |
| 20260506025253 | 21 | 127 | 3.2 | 9.7 | 0.00 | 0.00 | 0.00 | 51 | 1013.1 |
| 20260506024750 | 21 | 31 | 4.8 | 9.7 | 0.00 | 0.00 | 0.00 | 50 | 1013.0 |
| 20260506024247 | 21 | 91 | 3.2 | 9.7 | 0.00 | 0.00 | 0.00 | 50 | 1013.2 |
| 20260506023743 | 21 | 160 | 9.7 | 16.1 | 0.00 | 0.00 | 0.00 | 49 | 1013.2 |
| 20260506023240 | 22 | 151 | 4.8 | 16.1 | 0.00 | 0.00 | 0.00 | 49 | 1013.2 |
| 20260506022736 | 22 | 99 | 3.2 | 8.0 | 0.00 | 0.00 | 0.00 | 49 | 1013.2 |
| 20260506022235 | 22 | 130 | 3.2 | 16.1 | 0.00 | 0.00 | 0.00 | 48 | 1013.3 |
| 20260506021732 | 22 | 57 | 4.8 | 8.0 | 0.00 | 0.00 | 0.00 | 48 | 1013.1 |
| 20260506021229 | 22 | 149 | 12.9 | 17.7 | 0.00 | 0.00 | 0.00 | 47 | 1013.1 |
| 20260506020726 | 22 | 147 | 11.3 | 14.5 | 0.00 | 0.00 | 0.00 | 47 | 1013.1 |
| 20260506020224 | 22 | 127 | 9.7 | 12.9 | 0.00 | 0.00 | 0.00 | 47 | 1013.3 |
| 20260506015721 | 22 | 110 | 4.8 | 4.8 | 0.00 | 0.00 | 0.00 | 46 | 1013.3 |
| 20260506015219 | 22 | 190 | 1.6 | 9.7 | 0.00 | 0.00 | 0.00 | 46 | 1012.9 |
| 20260506014715 | 22 | 136 | 3.2 | 8.0 | 0.00 | 0.00 | 0.00 | 46 | 1013.1 |
| 20260506014211 | 22 | 83 | 3.2 | 8.0 | 0.00 | 0.00 | 0.00 | 45 | 1012.9 |
| 20260506013709 | 22 | 161 | 4.8 | 8.0 | 0.00 | 0.00 | 0.00 | 45 | 1012.9 |
| 20260506013206 | 22 | 223 | 4.8 | 14.5 | 0.00 | 0.00 | 0.00 | 44 | 1012.6 |
| 20260506012702 | 22 | 166 | 4.8 | 8.0 | 0.00 | 0.00 | 0.00 | 44 | 1012.8 |
| 20260506012159 | 23 | 91 | 3.2 | 4.8 | 0.00 | 0.00 | 0.00 | 43 | 1012.7 |
| 20260506011657 | 23 | 167 | 4.8 | 11.3 | 0.00 | 0.00 | 0.00 | 43 | 1012.7 |
| 20260506011152 | 23 | 102 | 3.2 | 9.7 | 0.00 | 0.00 | 0.00 | 42 | 1012.7 |
| 20260506010652 | 23 | 110 | 3.2 | 12.9 | 0.00 | 0.00 | 0.00 | 42 | 1012.6 |
| 20260506010148 | 23 | 171 | 3.2 | 11.3 | 0.00 | 0.00 | 0.00 | 42 | 1012.6 |
| 20260506005645 | 23 | 137 | 4.8 | 8.0 | 0.00 | 0.00 | 0.00 | 42 | 1012.5 |
| 20260506005142 | 23 | 172 | 3.2 | 4.8 | 0.00 | 0.00 | 0.00 | 42 | 1012.3 |
| 20260506004638 | 23 | 178 | 4.8 | 11.3 | 0.00 | 0.00 | 0.00 | 41 | 1012.5 |
| 20260506004135 | 23 | 153 | 6.4 | 11.3 | 0.00 | 0.00 | 0.00 | 40 | 1012.3 |
| 20260506003631 | 23 | 182 | 3.2 | 8.0 | 0.00 | 0.00 | 0.00 | 40 | 1012.4 |
| 20260506003128 | 24 | 90 | 1.6 | 3.2 | 0.00 | 0.00 | 0.00 | 40 | 1012.5 |
| 20260506002619 | 25 | 231 | 6.4 | 12.9 | 0.00 | 0.00 | 0.00 | 39 | 1012.4 |
| 20260506002115 | 24 | 86 | 3.2 | 9.7 | 0.00 | 0.00 | 0.00 | 39 | 1012.2 |
| 20260506001611 | 24 | 120 | 1.6 | 1.6 | 0.00 | 0.00 | 0.00 | 39 | 1012.3 |
| 20260506001108 | 25 | 129 | 3.2 | 4.8 | 0.00 | 0.00 | 0.00 | 38 | 1012.2 |
| 20260506000606 | 25 | 160 | 8.0 | 11.3 | 0.00 | 0.00 | 0.00 | 37 | 1012.2 |
| 20260505235601 | 25 | 117 | 3.2 | 4.8 | 0.00 | 0.00 | 0.00 | 36 | 1011.9 |
| 20260505235058 | 25 | 259 | 12.9 | 14.5 | 0.00 | 0.00 | 0.00 | 35 | 1012.1 |
| 20260505234554 | 25 | 176 | 4.8 | 9.7 | 0.00 | 0.00 | 0.00 | 36 | 1012.0 |
| 20260505234051 | 25 | 82 | 4.8 | 11.3 | 0.00 | 0.00 | 0.00 | 36 | 1011.9 |
| 20260505233549 | 25 | 83 | 1.6 | 16.1 | 0.00 | 0.00 | 0.00 | 35 | 1012.0 |
| 20260505233046 | 25 | 244 | 3.2 | 17.7 | 0.00 | 0.00 | 0.00 | 36 | 1011.9 |
| 20260505232544 | 25 | 103 | 4.8 | 8.0 | 0.00 | 0.00 | 0.00 | 35 | 1012.1 |
| 20260505232041 | 25 | 135 | 4.8 | 8.0 | 0.00 | 0.00 | 0.00 | 35 | 1011.9 |